Time;durP1;ratioP1;P1;durP2;ratioP2;P2;SDS_P1;SDS_P2;PMS_P1;PMS_P2;Temp;Humidity;BMP_temperature;BMP_pressure;BME280_temperature;BME280_humidity;BME280_pressure;Samples;Min_cycle;Max_cycle;Signal;HPM_P1;HPM_P2
2021/03/01 00:00:40;;;;;;;86.00;44.85;;;3.20;89.80;;;;;;5094799;28;20047;-59
2021/03/01 00:03:06;;;;;;;84.57;45.83;;;3.20;89.20;;;;;;5096092;28;20386;-59
2021/03/01 00:05:33;;;;;;;81.88;40.35;;;3.20;88.80;;;;;;5096108;28;20032;-60
2021/03/01 00:07:59;;;;;;;81.85;41.88;;;3.30;89.10;;;;;;5095980;28;20024;-60
2021/03/01 00:10:25;;;;;;;74.88;40.67;;;3.30;88.50;;;;;;5095870;28;20046;-60
2021/03/01 00:12:51;;;;;;;82.32;43.60;;;3.30;88.40;;;;;;5095855;28;20028;-60
2021/03/01 00:15:20;;;;;;;99.22;50.03;;;3.30;88.20;;;;;;5095917;28;20051;-60
2021/03/01 00:17:46;;;;;;;104.90;52.28;;;3.40;85.80;;;;;;5095530;28;20044;-60
2021/03/01 00:20:14;;;;;;;115.07;53.63;;;3.30;86.10;;;;;;5095660;28;20071;-60
2021/03/01 00:22:41;;;;;;;103.47;52.22;;;3.30;85.90;;;;;;5095448;28;20364;-60
2021/03/01 00:25:08;;;;;;;105.78;53.92;;;3.30;85.50;;;;;;5095449;28;20424;-60
2021/03/01 00:27:34;;;;;;;98.20;51.53;;;3.20;84.20;;;;;;5095617;28;20115;-60
2021/03/01 00:30:00;;;;;;;99.65;51.00;;;3.10;84.30;;;;;;5095628;28;20039;-60
2021/03/01 00:32:25;;;;;;;99.47;51.08;;;3.10;84.70;;;;;;5095223;28;20024;-62
2021/03/01 00:34:51;;;;;;;106.82;53.17;;;;;;;;;;5095458;28;20039;-62
2021/03/01 00:37:18;;;;;;;112.72;55.90;;;;;;;;;;5095461;28;20024;-62
2021/03/01 00:39:44;;;;;;;113.43;54.38;;;;;;;;;;5093592;28;20511;-62
2021/03/01 00:42:10;;;;;;;139.40;60.88;;;;;;;;;;5095076;28;20043;-62
2021/03/01 00:44:36;;;;;;;131.00;60.00;;;;;;;;;;5093983;28;20520;-62
2021/03/01 00:47:03;;;;;;;133.00;62.95;;;;;;;;;;5093962;28;20024;-62
2021/03/01 00:49:29;;;;;;;141.07;65.57;;;;;;;;;;5095418;28;20074;-62
2021/03/01 00:51:55;;;;;;;132.07;64.68;;;;;;;;;;5095733;28;20332;-62
2021/03/01 00:54:21;;;;;;;127.83;60.80;;;;;;;;;;5095188;28;20077;-62
2021/03/01 00:56:47;;;;;;;144.67;65.77;;;;;;;;;;5095294;28;20032;-62
2021/03/01 00:59:13;;;;;;;142.43;65.85;;;;;;;;;;5094924;28;20077;-62
2021/03/01 01:01:39;;;;;;;136.73;65.45;;;;;;;;;;5094932;28;20463;-62
2021/03/01 01:04:06;;;;;;;130.07;62.00;;;;;;;;;;5093633;28;20480;-62
2021/03/01 01:06:32;;;;;;;136.90;64.88;;;;;;;;;;5094865;28;20043;-62
2021/03/01 01:08:58;;;;;;;134.45;64.20;;;;;;;;;;5094833;28;20024;-63
2021/03/01 01:11:24;;;;;;;135.57;62.50;;;;;;;;;;5094748;28;20463;-63
2021/03/01 01:13:50;;;;;;;117.57;58.08;;;3.00;85.60;;;;;;5094685;28;20063;-62
2021/03/01 01:16:16;;;;;;;121.60;59.25;;;;;;;;;;5094725;28;20052;-62
2021/03/01 01:18:42;;;;;;;118.03;56.67;;;2.70;87.40;;;;;;5094630;28;20120;-62
2021/03/01 01:21:08;;;;;;;114.95;57.42;;;2.70;89.00;;;;;;5094534;28;20597;-61
2021/03/01 01:23:34;;;;;;;102.73;52.03;;;2.60;89.10;;;;;;5094489;28;20024;-61
2021/03/01 01:26:00;;;;;;;103.10;51.30;;;2.70;88.90;;;;;;5094487;28;20047;-61
2021/03/01 01:28:26;;;;;;;102.80;52.03;;;2.60;89.30;;;;;;5094485;28;20367;-61
2021/03/01 01:30:52;;;;;;;96.07;48.47;;;;;;;;;;5094072;28;20028;-61
2021/03/01 01:33:18;;;;;;;108.13;49.63;;;;;;;;;;5094109;28;20099;-60
2021/03/01 01:35:44;;;;;;;95.00;46.23;;;;;;;;;;5094382;28;20089;-59
2021/03/01 01:38:10;;;;;;;85.37;41.80;;;;;;;;;;5094226;28;20028;-61
2021/03/01 01:40:37;;;;;;;107.07;49.03;;;;;;;;;;5092475;28;20403;-61
2021/03/01 01:43:03;;;;;;;95.97;49.08;;;;;;;;;;5092808;28;20043;-61
2021/03/01 01:45:30;;;;;;;73.53;40.33;;;;;;;;;;5093219;28;20024;-62
2021/03/01 01:47:56;;;;;;;64.03;34.58;;;;;;;;;;5094034;28;20061;-62
2021/03/01 01:50:24;;;;;;;74.13;37.67;;;;;;;;;;5092767;28;20032;-62
2021/03/01 01:52:51;;;;;;;79.80;39.50;;;;;;;;;;5093965;28;20089;-62
2021/03/01 01:55:18;;;;;;;77.87;39.83;;;;;;;;;;5093980;28;20081;-61
2021/03/01 01:57:44;;;;;;;72.25;37.38;;;;;;;;;;5093890;28;20047;-61
2021/03/01 02:00:23;;;;;;;73.37;37.97;;;;;;;;;;5093551;28;20072;-62
2021/03/01 02:02:52;;;;;;;73.95;37.78;;;;;;;;;;5093822;28;20020;-63
2021/03/01 02:05:18;;;;;;;78.83;38.90;;;;;;;;;;5092562;28;20031;-63
2021/03/01 02:07:51;;;;;;;72.67;38.93;;;;;;;;;;5092453;28;20062;-68
2021/03/01 02:10:23;;;;;;;70.60;37.92;;;;;;;;;;5093649;28;20039;-64
2021/03/01 02:13:22;;;;;;;88.10;42.07;;;;;;;;;;5093888;28;20032;-63
2021/03/01 02:16:12;;;;;;;82.40;42.00;;;2.60;90.30;;;;;;5037798;28;20093;-65
2021/03/01 02:18:37;;;;;;;75.30;40.00;;;2.40;90.70;;;;;;5092332;28;20024;-64
2021/03/01 02:21:11;;;;;;;78.40;40.27;;;2.30;90.70;;;;;;5093447;28;20039;-65
2021/03/01 02:23:41;;;;;;;82.10;41.78;;;;;;;;;;5093544;28;20123;-63
2021/03/01 02:26:12;;;;;;;80.40;40.93;;;;;;;;;;5094083;28;20343;-64
2021/03/01 02:28:41;;;;;;;80.95;40.00;;;;;;;;;;5093576;28;20028;-63
2021/03/01 02:31:08;;;;;;;74.53;39.87;;;;;;;;;;5092100;28;20379;-64
2021/03/01 02:33:39;;;;;;;73.03;38.20;;;;;;;;;;5093113;28;20078;-64
2021/03/01 02:36:08;;;;;;;74.03;38.90;;;;;;;;;;5092214;28;20032;-62
2021/03/01 02:38:35;;;;;;;69.50;34.87;;;;;;;;;;5093270;28;20478;-62
2021/03/01 02:41:02;;;;;;;62.03;32.97;;;;;;;;;;5091548;28;20097;-62
2021/03/01 02:43:29;;;;;;;65.17;35.77;;;;;;;;;;5093215;28;20031;-61
2021/03/01 02:45:56;;;;;;;72.03;35.00;;;;;;;;;;5093305;28;20027;-62
2021/03/01 02:48:22;;;;;;;58.37;33.57;;;;;;;;;;5093196;28;20024;-61
2021/03/01 02:50:50;;;;;;;55.67;29.03;;;;;;;;;;5093211;28;20063;-61
2021/03/01 02:53:17;;;;;;;54.73;29.03;;;;;;;;;;5093427;28;20024;-61
2021/03/01 02:55:44;;;;;;;58.30;28.63;;;;;;;;;;5093309;28;20028;-61
2021/03/01 02:58:11;;;;;;;52.93;27.07;;;;;;;;;;5097064;28;20382;-61
2021/03/01 03:00:38;;;;;;;54.80;28.20;;;;;;;;;;5096930;28;20559;-61
2021/03/01 03:03:05;;;;;;;57.53;26.87;;;;;;;;;;5097234;28;20379;-61
2021/03/01 03:05:31;;;;;;;53.60;27.93;;;;;;;;;;5097269;28;20028;-61
2021/03/01 03:07:58;;;;;;;67.93;31.37;;;;;;;;;;5096846;28;20107;-61
2021/03/01 03:10:25;;;;;;;68.50;31.80;;;;;;;;;;5097131;28;20035;-62
2021/03/01 03:12:52;;;;;;;57.67;27.43;;;;;;;;;;5097036;28;20032;-62
2021/03/01 03:15:21;;;;;;;53.07;26.10;;;;;;;;;;5097097;28;20024;-62
2021/03/01 03:17:49;;;;;;;53.20;25.30;;;;;;;;;;5096995;28;20107;-62
2021/03/01 03:20:15;;;;;;;45.87;23.43;;;;;;;;;;5096874;28;20064;-62
2021/03/01 03:22:41;;;;;;;51.13;25.13;;;;;;;;;;5096870;28;20102;-61
2021/03/01 03:25:10;;;;;;;42.33;23.07;;;;;;;;;;5095265;28;20036;-62
2021/03/01 03:27:37;;;;;;;48.37;24.40;;;;;;;;;;5095442;28;20035;-62
2021/03/01 03:30:10;;;;;;;45.40;22.47;;;;;;;;;;5096788;28;20042;-62
2021/03/01 03:32:36;;;;;;;46.17;24.07;;;;;;;;;;5096442;28;20060;-63
2021/03/01 03:35:05;;;;;;;42.73;21.97;;;;;;;;;;5096687;28;20028;-65
2021/03/01 03:37:40;;;;;;;43.53;22.07;;;;;;;;;;5095050;28;20028;-65
2021/03/01 03:40:06;;;;;;;37.20;21.57;;;;;;;;;;5096080;28;20075;-64
2021/03/01 03:42:35;;;;;;;38.77;21.30;;;;;;;;;;5096452;28;20028;-64
2021/03/01 03:45:02;;;;;;;41.40;21.27;;;;;;;;;;5096139;28;20481;-61
2021/03/01 03:47:29;;;;;;;39.07;22.57;;;;;;;;;;5096476;28;20073;-62
2021/03/01 03:49:56;;;;;;;65.07;31.77;;;;;;;;;;5096344;28;20036;-63
2021/03/01 03:52:26;;;;;;;52.60;24.00;;;;;;;;;;5096329;28;20089;-62
2021/03/01 03:54:53;;;;;;;51.97;26.10;;;;;;;;;;5096235;28;20055;-62
2021/03/01 03:57:22;;;;;;;49.20;25.93;;;;;;;;;;5095937;28;20028;-63
2021/03/01 03:59:50;;;;;;;50.43;26.70;;;;;;;;;;5094734;28;20032;-62
2021/03/01 04:02:17;;;;;;;86.73;35.53;;;;;;;;;;5096093;28;20020;-62
2021/03/01 04:04:44;;;;;;;111.40;43.47;;;;;;;;;;5096337;28;20043;-64
2021/03/01 04:07:11;;;;;;;210.50;85.93;;;;;;;;;;5095803;28;20032;-63
2021/03/01 04:09:41;;;;;;;182.97;76.17;;;;;;;;;;5094300;28;20096;-63
2021/03/01 04:12:10;;;;;;;180.63;71.97;;;;;;;;;;5096004;28;20024;-63
2021/03/01 04:14:38;;;;;;;151.07;63.83;;;;;;;;;;5095888;28;20035;-64
2021/03/01 04:17:06;;;;;;;71.40;38.30;;;;;;;;;;5095854;28;20024;-64
2021/03/01 04:19:33;;;;;;;66.90;33.80;;;;;;;;;;5094430;28;20030;-63
2021/03/01 04:22:00;;;;;;;62.43;32.63;;;;;;;;;;5094418;28;20020;-63
2021/03/01 04:24:28;;;;;;;51.87;26.53;;;;;;;;;;5095753;28;20035;-62
2021/03/01 04:26:54;;;;;;;49.87;26.20;;;;;;;;;;5095993;28;20027;-63
2021/03/01 04:29:23;;;;;;;46.03;25.73;;;;;;;;;;5095364;28;20028;-63
2021/03/01 04:31:50;;;;;;;50.33;25.33;;;;;;;;;;5095573;28;20024;-62
2021/03/01 04:34:20;;;;;;;44.63;25.10;;;;;;;;;;5095820;28;20024;-61
2021/03/01 04:36:46;;;;;;;64.13;29.47;;;;;;;;;;5095528;28;20025;-61
2021/03/01 04:39:13;;;;;;;55.57;28.00;;;;;;;;;;5093860;28;20624;-61
2021/03/01 04:41:41;;;;;;;49.77;28.17;;;;;;;;;;5095380;28;20028;-62
2021/03/01 04:44:07;;;;;;;61.17;29.00;;;;;;;;;;5095062;28;20045;-61
2021/03/01 04:46:34;;;;;;;44.97;25.33;;;;;;;;;;5095337;28;20039;-62
2021/03/01 04:49:02;;;;;;;48.97;23.90;;;;;;;;;;5094187;28;20355;-61
2021/03/01 04:51:28;;;;;;;42.20;21.93;;;;;;;;;;5093897;28;20027;-60
2021/03/01 04:53:55;;;;;;;40.77;20.37;;;;;;;;;;5095144;28;20518;-60
2021/03/01 04:56:22;;;;;;;47.27;20.10;;;;;;;;;;5095118;28;20095;-60
2021/03/01 04:58:48;;;;;;;35.73;18.60;;;;;;;;;;5094949;28;20103;-61
2021/03/01 05:01:16;;;;;;;60.30;30.93;;;;;;;;;;5094872;28;20032;-61
2021/03/01 05:03:42;;;;;;;111.43;53.23;;;;;;;;;;5094870;28;20026;-60
2021/03/01 05:06:09;;;;;;;129.47;65.07;;;;;;;;;;5094904;28;20036;-59
2021/03/01 05:08:36;;;;;;;78.63;44.57;;;;;;;;;;5093539;28;20039;-60
2021/03/01 05:11:05;;;;;;;77.70;44.40;;;;;;;;;;5095011;28;20370;-59
2021/03/01 05:13:31;;;;;;;54.50;29.37;;;;;;;;;;5094687;28;20046;-60
2021/03/01 05:15:58;;;;;;;40.30;23.10;;;;;;;;;;5094997;28;20028;-60
2021/03/01 05:18:24;;;;;;;59.27;32.83;;;;;;;;;;5094619;28;20024;-60
2021/03/01 05:20:50;;;;;;;57.97;31.60;;;;;;;;;;5075204;28;20104;-60
2021/03/01 05:23:16;;;;;;;59.77;32.00;;;;;;;;;;5085670;28;20096;-59
2021/03/01 05:25:43;;;;;;;54.17;29.90;;;;;;;;;;5084924;28;20032;-59
2021/03/01 05:28:09;;;;;;;49.40;26.87;;;;;;;;;;5081688;28;20028;-59
2021/03/01 05:30:35;;;;;;;49.93;23.53;;;;;;;;;;5074084;28;20032;-59
2021/03/01 05:33:01;;;;;;;51.40;23.47;;;;;;;;;;5073974;28;20021;-60
2021/03/01 05:35:27;;;;;;;40.07;23.30;;;;;;;;;;5074015;28;20487;-59
2021/03/01 05:37:53;;;;;;;40.83;22.80;;;;;;;;;;5073647;28;20558;-60
2021/03/01 05:40:19;;;;;;;41.90;22.37;;;;;;;;;;5073670;28;20071;-60
2021/03/01 05:42:46;;;;;;;39.73;21.67;;;;;;;;;;5072447;28;20032;-60
2021/03/01 05:45:13;;;;;;;42.33;22.37;;;;;;;;;;5072490;28;20567;-61
2021/03/01 05:47:47;;;;;;;41.47;22.87;;;;;;;;;;5077352;28;20051;-61
2021/03/01 05:50:13;;;;;;;46.10;23.63;;;;;;;;;;5083886;28;20751;-60
2021/03/01 05:52:45;;;;;;;42.73;22.53;;;;;;;;;;5093758;28;20052;-60
2021/03/01 05:55:11;;;;;;;61.33;26.87;;;;;;;;;;5092493;28;20536;-61
2021/03/01 05:57:44;;;;;;;64.60;29.57;;;;;;;;;;5092740;28;20107;-64
2021/03/01 06:00:12;;;;;;;55.77;28.63;;;;;;;;;;5079346;28;20386;-64
2021/03/01 06:02:38;;;;;;;59.17;30.20;;;;;;;;;;5093274;28;20111;-63
2021/03/01 06:05:11;;;;;;;63.90;30.00;;;;;;;;;;5081681;28;20103;-64
2021/03/01 06:07:37;;;;;;;56.43;28.57;;;;;;;;;;5075313;28;20475;-64
2021/03/01 06:10:03;;;;;;;60.27;29.90;;;;;;;;;;5075625;28;20093;-64
2021/03/01 06:12:29;;;;;;;69.57;32.23;;;;;;;;;;5082262;28;20494;-63
2021/03/01 06:14:56;;;;;;;70.80;33.40;;;;;;;;;;5073519;28;20034;-64
2021/03/01 06:17:23;;;;;;;63.47;31.70;;;;;;;;;;5083519;28;20532;-65
2021/03/01 06:19:54;;;;;;;54.47;28.33;;;;;;;;;;5073260;28;20036;-64
2021/03/01 06:22:26;;;;;;;62.27;30.20;;;;;;;;;;5073217;28;20480;-63
2021/03/01 06:25:22;;;;;;;51.57;28.30;;;2.30;90.80;;;;;;5073273;28;20021;-63
2021/03/01 06:27:53;;;;;;;47.07;28.00;;;;;;;;;;5073146;28;20073;-63
2021/03/01 06:30:20;;;;;;;;;;;;;;;;;;5073204;28;20035;-62
2021/03/01 06:33:02;;;;;;;47.80;24.40;;;;;;;;;;5072894;28;19912;-63
2021/03/01 06:35:30;;;;;;;47.93;24.40;;;;;;;;;;5071806;28;20024;-63
2021/03/01 06:38:14;;;;;;;43.17;22.37;;;;;;;;;;5070235;28;20379;-62
2021/03/01 06:40:40;;;;;;;37.37;19.40;;;;;;;;;;5072112;28;20048;-62
2021/03/01 06:43:11;;;;;;;41.00;21.90;;;;;;;;;;5072826;28;20055;-62
2021/03/01 06:45:37;;;;;;;41.47;21.13;;;;;;;;;;5072808;28;20131;-62
2021/03/01 06:48:04;;;;;;;35.83;20.37;;;;;;;;;;5072516;28;20100;-64
2021/03/01 06:50:36;;;;;;;34.57;20.50;;;;;;;;;;5091547;28;20107;-60
2021/03/01 06:53:12;;;;;;;35.80;19.73;;;;;;;;;;5091217;28;20111;-61
2021/03/01 06:55:57;;;;;;;35.17;18.77;;;;;;;;;;5090484;28;20031;-61
2021/03/01 06:58:27;;;;;;;39.63;22.53;;;;;;;;;;5092992;28;20111;-62
2021/03/01 07:01:01;;;;;;;48.00;23.83;;;;;;;;;;5092832;28;20028;-63
2021/03/01 07:03:27;;;;;;;38.00;20.53;;;;;;;;;;5092853;28;20024;-62
2021/03/01 07:05:55;;;;;;;47.88;20.80;;;2.40;93.10;;;;;;5092905;28;20028;-61
2021/03/01 07:08:51;;;;;;;38.37;19.87;;;4.70;87.10;;;;;;5092691;28;20024;-61
2021/03/01 07:11:37;;;;;;;42.00;21.07;;;4.80;89.30;;;;;;5092896;28;20028;-61
2021/03/01 07:14:05;;;;;;;37.75;20.33;;;5.00;86.30;;;;;;5092901;28;20032;-61
2021/03/01 07:16:49;;;;;;;45.88;21.95;;;5.10;87.50;;;;;;5092817;28;20028;-62
2021/03/01 07:19:32;;;;;;;38.33;21.20;;;5.20;85.50;;;;;;5092822;28;20510;-65
2021/03/01 07:22:02;;;;;;;43.38;23.25;;;;;;;;;;5086861;28;20035;-68
2021/03/01 07:24:29;;;;;;;50.63;23.45;;;;;;;;;;5078170;28;20029;-65
2021/03/01 07:26:56;;;;;;;44.72;23.42;;;;;;;;;;5072392;28;20065;-67
2021/03/01 07:29:24;;;;;;;55.45;24.63;;;;;;;;;;5072549;28;20032;-66
2021/03/01 07:32:05;;;;;;;34.70;18.52;;;;;;;;;;5072466;28;20155;-75
2021/03/01 07:34:32;;;;;;;37.60;21.63;;;;;;;;;;5080818;28;20101;-70
2021/03/01 07:36:59;;;;;;;42.17;21.20;;;;;;;;;;5091326;28;20398;-65
2021/03/01 07:39:26;;;;;;;32.83;18.27;;;;;;;;;;5092304;28;20048;-67
2021/03/01 07:41:53;;;;;;;33.00;20.30;;;;;;;;;;5091011;28;20043;-65
2021/03/01 07:44:29;;;;;;;38.28;18.48;;;;;;;;;;5095717;28;20031;-71
2021/03/01 07:46:56;;;;;;;31.77;16.80;;;;;;;;;;5096332;28;20024;-69
2021/03/01 07:49:42;;;;;;;33.00;17.60;;;;;;;;;;5095957;28;20417;-69
2021/03/01 07:52:08;;;;;;;32.65;17.30;;;;;;;;;;5094806;28;20020;-64
2021/03/01 07:54:55;;;;;;;32.97;17.83;;;;;;;;;;5096183;28;20040;-66
2021/03/01 07:57:22;;;;;;;47.70;21.63;;;;;;;;;;5101592;28;20095;-64
2021/03/01 07:59:48;;;;;;;32.40;18.13;;;;;;;;;;5093723;28;20035;-67
2021/03/01 08:02:15;;;;;;;30.27;16.92;;;;;;;;;;5097280;28;20036;-64
2021/03/01 08:04:42;;;;;;;28.98;15.88;;;;;;;;;;5115278;28;20107;-64
2021/03/01 08:07:08;;;;;;;30.92;16.95;;;;;;;;;;5116473;28;20022;-64
2021/03/01 08:09:48;;;;;;;26.23;15.40;;;;;;;;;;5115958;28;20497;-64
2021/03/01 08:12:29;;;;;;;29.48;16.58;;;;;;;;;;5098675;28;20027;-66
2021/03/01 08:14:57;;;;;;;25.10;15.02;;;;;;;;;;5095012;28;20366;-64
2021/03/01 08:17:29;;;;;;;24.17;14.02;;;;;;;;;;5095847;28;20063;-62
2021/03/01 08:19:55;;;;;;;;;;;;;;;;;;5094947;28;20035;-63
2021/03/01 08:22:21;;;;;;;31.15;15.32;;;;;;;;;;5095449;28;19994;-63
2021/03/01 08:24:48;;;;;;;27.63;15.77;;;;;;;;;;5095903;28;20016;-61
2021/03/01 08:27:24;;;;;;;26.20;15.50;;;;;;;;;;5095571;28;20020;-62
2021/03/01 08:30:08;;;;;;;28.25;16.17;;;;;;;;;;5095325;28;20050;-60
2021/03/01 08:32:35;;;;;;;26.63;15.15;;;;;;;;;;5094083;28;20028;-62
2021/03/01 08:35:20;;;;;;;23.10;14.65;;;;;;;;;;5095390;28;20111;-58
2021/03/01 08:37:46;;;;;;;31.52;15.18;;;;;;;;;;5095399;28;20016;-62
2021/03/01 08:40:19;;;;;;;33.25;17.45;;;;;;;;;;5094660;28;20079;-68
2021/03/01 08:42:49;;;;;;;31.15;16.48;;;;;;;;;;5094968;28;20024;-70
2021/03/01 08:45:41;;;;;;;33.47;18.33;;;;;;;;;;5096589;28;20051;-62
2021/03/01 08:48:08;;;;;;;29.15;16.60;;;;;;;;;;5090019;28;20115;-66
2021/03/01 08:50:40;;;;;;;28.58;16.10;;;;;;;;;;5094510;28;20027;-64
2021/03/01 08:53:06;;;;;;;31.33;17.30;;;;;;;;;;5093790;28;20069;-63
2021/03/01 08:55:34;;;;;;;38.58;19.55;;;;;;;;;;5093616;28;20020;-70
2021/03/01 08:58:36;;;;;;;43.35;21.20;;;;;;;;;;5092804;28;20047;-65
2021/03/01 09:01:04;;;;;;;47.60;26.45;;;;;;;;;;5092625;28;20036;-62
2021/03/01 09:03:32;;;;;;;33.00;17.40;;;;;;;;;;5095757;28;20035;-63
2021/03/01 09:06:05;;;;;;;97.13;20.77;;;5.30;83.40;;;;;;5094809;28;20463;-64
2021/03/01 09:08:33;;;;;;;28.48;16.10;;;;;;;;;;5090684;28;20027;-62
2021/03/01 09:11:01;;;;;;;29.70;15.70;;;10.20;60.10;;;;;;5092755;28;20100;-63
2021/03/01 09:13:28;;;;;;;30.90;17.92;;;10.20;61.30;;;;;;5092926;28;20024;-65
2021/03/01 09:15:53;;;;;;;24.52;15.15;;;10.40;60.10;;;;;;5092466;28;20126;-66
2021/03/01 09:18:21;;;;;;;26.63;15.35;;;10.30;60.00;;;;;;5093776;28;20104;-62
2021/03/01 09:20:55;;;;;;;46.38;24.00;;;;;;;;;;5093669;28;20032;-65
2021/03/01 09:23:31;;;;;;;28.17;15.85;;;;;;;;;;5093991;28;20551;-65
2021/03/01 09:25:57;;;;;;;24.85;15.02;;;;;;;;;;5094234;28;20028;-65
2021/03/01 09:28:31;;;;;;;32.08;15.00;;;;;;;;;;5094422;28;20039;-65
2021/03/01 09:31:08;;;;;;;39.00;19.02;;;;;;;;;;5093119;28;20538;-63
2021/03/01 09:33:34;;;;;;;84.43;34.88;;;;;;;;;;5094366;28;20394;-65
2021/03/01 09:36:01;;;;;;;29.27;15.80;;;;;;;;;;5094229;28;20020;-64
2021/03/01 09:38:27;;;;;;;30.13;17.17;;;;;;;;;;5094142;28;20024;-62
2021/03/01 09:40:57;;;;;;;24.80;15.38;;;;;;;;;;5094051;28;20466;-62
2021/03/01 09:43:23;;;;;;;33.83;16.15;;;10.40;59.10;;;;;;5094166;28;20067;-67
2021/03/01 09:45:50;;;;;;;27.92;15.18;;;;;;;;;;5094096;28;20036;-71
2021/03/01 09:48:17;;;;;;;23.83;14.35;;;;;;;;;;5094092;28;20445;-71
2021/03/01 09:50:43;;;;;;;23.63;13.55;;;;;;;;;;5093939;28;20089;-70
2021/03/01 09:53:09;;;;;;;22.67;15.27;;;12.10;70.90;;;;;;5093623;28;20032;-65
2021/03/01 09:55:36;;;;;;;25.08;14.32;;;13.40;57.70;;;;;;5093896;28;20035;-72
2021/03/01 09:58:20;;;;;;;22.15;14.23;;;;;;;;;;5092526;28;20085;-70
2021/03/01 10:00:47;;;;;;;16.77;10.90;;;13.70;58.40;;;;;;5093713;28;20080;-69
2021/03/01 10:03:13;;;;;;;19.70;12.63;;;;;;;;;;5093977;28;20356;-71
2021/03/01 10:05:46;;;;;;;19.90;12.30;;;;;;;;;;5093126;28;20028;-69
2021/03/01 10:08:20;;;;;;;46.97;24.95;;;14.20;61.40;;;;;;5092441;28;20379;-66
2021/03/01 10:10:48;;;;;;;16.75;10.60;;;14.10;65.40;;;;;;5093416;28;20039;-63
2021/03/01 10:13:26;;;;;;;22.55;12.98;;;13.60;48.80;;;;;;5093694;28;20158;-63
2021/03/01 10:15:53;;;;;;;15.75;10.48;;;13.50;50.50;;;;;;5093884;28;20379;-65
2021/03/01 10:18:22;;;;;;;19.65;13.15;;;13.40;49.00;;;;;;5093588;28;20020;-64
2021/03/01 10:20:51;;;;;;;30.17;13.38;;;13.60;50.30;;;;;;5092131;28;20043;-63
2021/03/01 10:23:32;;;;;;;21.65;11.48;;;13.50;50.10;;;;;;5093681;28;20035;-62
2021/03/01 10:26:07;;;;;;;22.00;13.15;;;13.70;48.50;;;;;;5093524;28;20028;-63
2021/03/01 10:28:37;;;;;;;26.63;14.93;;;13.80;48.60;;;;;;5093146;28;20031;-62
2021/03/01 10:31:07;;;;;;;30.42;13.52;;;;;;;;;;5093705;28;20379;-65
2021/03/01 10:33:48;;;;;;;30.85;13.32;;;14.20;48.70;;;;;;5092080;28;20059;-61
2021/03/01 10:36:14;;;;;;;17.10;10.68;;;15.00;47.00;;;;;;5092001;28;20024;-65
2021/03/01 10:38:55;;;;;;;17.88;11.45;;;;;;;;;;5091963;28;20528;-66
2021/03/01 10:41:21;;;;;;;15.98;10.07;;;;;;;;;;5093193;28;20043;-65
2021/03/01 10:44:07;;;;;;;14.73;10.88;;;;;;;;;;5091832;28;20020;-66
2021/03/01 10:46:39;;;;;;;15.02;11.48;;;;;;;;;;5091448;28;20024;-63
2021/03/01 10:49:26;;;;;;;15.13;10.07;;;15.80;46.60;;;;;;5092698;28;20344;-65
2021/03/01 10:51:54;;;;;;;16.25;10.55;;;17.90;39.60;;;;;;5077966;28;20036;-65
2021/03/01 10:54:20;;;;;;;16.65;11.02;;;18.00;39.90;;;;;;5091615;28;20452;-66
2021/03/01 10:56:46;;;;;;;20.48;14.73;;;18.20;39.30;;;;;;5091718;28;20035;-63
2021/03/01 10:59:12;;;;;;;17.65;12.20;;;18.50;39.10;;;;;;5092665;28;20024;-60
2021/03/01 11:01:43;;;;;;;26.45;15.98;;;18.50;38.50;;;;;;5092912;28;20032;-61
2021/03/01 11:04:14;;;;;;;19.80;12.13;;;18.80;38.60;;;;;;5093029;28;20056;-62
2021/03/01 11:06:41;;;;;;;25.33;13.88;;;19.10;37.00;;;;;;5093042;28;20024;-60
2021/03/01 11:09:09;;;;;;;21.35;13.23;;;19.10;37.50;;;;;;5093096;28;20107;-60
2021/03/01 11:11:36;;;;;;;15.98;10.55;;;19.60;36.20;;;;;;5093037;28;20028;-65
2021/03/01 11:14:03;;;;;;;16.65;12.02;;;19.80;35.70;;;;;;5092809;28;20028;-64
2021/03/01 11:16:29;;;;;;;23.33;13.45;;;19.90;35.60;;;;;;5091425;28;20115;-65
2021/03/01 11:18:55;;;;;;;17.88;11.35;;;20.50;35.10;;;;;;5092692;28;20111;-62
2021/03/01 11:21:21;;;;;;;17.88;12.20;;;19.90;34.40;;;;;;5091245;28;20571;-66
2021/03/01 11:23:55;;;;;;;22.23;14.55;;;20.80;34.20;;;;;;5076479;28;20078;-64
2021/03/01 11:26:24;;;;;;;27.88;18.50;;;21.40;32.70;;;;;;5074895;28;20024;-66
2021/03/01 11:28:56;;;;;;;22.50;14.88;;;;;;;;;;5078256;28;20028;-62
2021/03/01 11:31:23;;;;;;;20.83;13.57;;;21.70;31.60;;;;;;5084108;28;20118;-61
2021/03/01 11:33:49;;;;;;;16.48;11.45;;;22.00;31.40;;;;;;5075587;28;20024;-62
2021/03/01 11:36:16;;;;;;;21.38;14.98;;;22.50;30.70;;;;;;5076025;28;20028;-62
2021/03/01 11:38:43;;;;;;;21.45;14.25;;;23.70;30.70;;;;;;5076253;28;20021;-62
2021/03/01 11:41:09;;;;;;;20.00;13.18;;;24.30;29.90;;;;;;5075804;28;20044;-62
2021/03/01 11:43:35;;;;;;;17.65;12.32;;;23.80;29.30;;;;;;5076166;28;20479;-62
2021/03/01 11:46:02;;;;;;;18.73;12.32;;;23.60;29.30;;;;;;5075850;28;20379;-60
2021/03/01 11:48:28;;;;;;;18.38;12.73;;;23.20;30.00;;;;;;5076119;28;20416;-61
2021/03/01 11:50:54;;;;;;;19.95;12.80;;;22.90;29.80;;;;;;5076080;28;20024;-62
2021/03/01 11:53:20;;;;;;;21.27;12.77;;;23.00;29.90;;;;;;5076293;28;20035;-61
2021/03/01 11:55:46;;;;;;;17.25;11.60;;;;;;;;;;5075835;28;20471;-62
2021/03/01 11:58:13;;;;;;;15.00;11.45;;;;;;;;;;5075950;28;20017;-62
2021/03/01 12:00:41;;;;;;;36.63;12.10;;;;;;;;;;5075691;28;20032;-63
2021/03/01 12:03:08;;;;;;;16.73;11.90;;;;;;;;;;5095942;28;20369;-61
2021/03/01 12:05:35;;;;;;;26.30;12.27;;;;;;;;;;5093902;28;20120;-63
2021/03/01 12:08:01;;;;;;;20.35;12.90;;;;;;;;;;5107461;28;20119;-63
2021/03/01 12:10:27;;;;;;;14.52;12.10;;;;;;;;;;5095900;28;20101;-63
2021/03/01 12:12:54;;;;;;;17.05;12.18;;;;;;;;;;5094251;28;20103;-62
2021/03/01 12:18:23;;;;;;;16.20;12.02;;;24.70;28.20;;;;;;5093772;28;20038;-64
2021/03/01 12:20:48;;;;;;;20.63;13.48;;;25.20;27.90;;;;;;5094965;28;20487;-62
2021/03/01 12:23:14;;;;;;;16.48;11.35;;;24.40;28.10;;;;;;5095676;28;20113;-64
2021/03/01 12:25:40;;;;;;;15.88;11.20;;;24.70;28.70;;;;;;5095270;28;20107;-63
2021/03/01 12:28:06;;;;;;;22.30;14.38;;;;;;;;;;5095534;28;20028;-64
2021/03/01 12:30:32;;;;;;;19.10;11.70;;;26.70;27.80;;;;;;5093472;28;20024;-67
2021/03/01 12:32:58;;;;;;;15.82;9.73;;;24.30;29.30;;;;;;5095497;28;20069;-63
2021/03/01 12:35:24;;;;;;;15.13;10.23;;;23.60;31.50;;;;;;5095065;28;20390;-68
2021/03/01 12:37:50;;;;;;;19.20;10.77;;;23.40;33.60;;;;;;5095357;28;20024;-67
2021/03/01 12:40:18;;;;;;;22.45;13.43;;;24.30;31.60;;;;;;5095326;28;20050;-66
2021/03/01 12:42:44;;;;;;;19.92;14.80;;;24.50;31.30;;;;;;5095054;28;20473;-64
2021/03/01 12:45:10;;;;;;;21.27;14.77;;;23.70;32.50;;;;;;5094010;28;20032;-69
2021/03/01 12:47:36;;;;;;;15.70;10.20;;;;;;;;;;5094491;28;20519;-68
2021/03/01 12:50:02;;;;;;;13.57;10.75;;;24.10;32.80;;;;;;5093876;28;20028;-65
2021/03/01 12:52:28;;;;;;;24.52;14.80;;;24.70;36.90;;;;;;5095157;28;20064;-66
2021/03/01 12:54:54;;;;;;;35.13;22.45;;;22.00;32.20;;;;;;5095340;28;20055;-61
2021/03/01 12:57:19;;;;;;;37.42;24.30;;;20.40;33.40;;;;;;5094892;28;20045;-62
2021/03/01 12:59:45;;;;;;;16.85;12.35;;;20.80;32.40;;;;;;5093282;28;20047;-63
2021/03/01 13:02:11;;;;;;;36.00;22.73;;;20.60;32.50;;;;;;5092820;28;20050;-63
2021/03/01 13:04:37;;;;;;;44.08;23.40;;;19.00;34.30;;;;;;5094851;28;20161;-62
2021/03/01 13:07:03;;;;;;;20.58;11.93;;;19.20;37.00;;;;;;5089858;28;20063;-61
2021/03/01 13:09:28;;;;;;;21.67;12.60;;;19.80;34.10;;;;;;5074543;28;20020;-61
2021/03/01 13:11:54;;;;;;;72.75;41.50;;;19.80;34.00;;;;;;5087768;28;20039;-61
2021/03/01 13:14:20;;;;;;;48.90;26.23;;;20.50;33.70;;;;;;5093163;28;20032;-62
2021/03/01 13:16:46;;;;;;;16.25;11.80;;;20.20;34.30;;;;;;5074283;28;20020;-60
2021/03/01 13:19:12;;;;;;;28.40;14.88;;;19.70;33.80;;;;;;5074417;28;20025;-62
2021/03/01 13:21:38;;;;;;;17.30;11.98;;;20.50;34.30;;;;;;5074300;28;20403;-60
2021/03/01 13:24:04;;;;;;;15.93;11.15;;;19.80;34.70;;;;;;5074250;28;20029;-60
2021/03/01 13:26:30;;;;;;;19.50;12.50;;;20.20;34.40;;;;;;5078941;28;20038;-61
2021/03/01 13:28:58;;;;;;;22.13;15.10;;;20.30;34.00;;;;;;5094674;28;20514;-62
2021/03/01 13:31:24;;;;;;;28.67;15.13;;;19.90;34.80;;;;;;5092055;28;20036;-61
2021/03/01 13:33:50;;;;;;;25.10;15.38;;;19.40;33.00;;;;;;5094332;28;20028;-61
2021/03/01 13:36:16;;;;;;;16.50;10.90;;;19.20;34.40;;;;;;5093148;28;20036;-61
2021/03/01 13:38:42;;;;;;;15.73;10.77;;;;;;;;;;5094238;28;20020;-60
2021/03/01 13:41:10;;;;;;;18.65;12.20;;;;;;;;;;5093414;28;20055;-62
2021/03/01 13:43:36;;;;;;;18.52;12.32;;;;;;;;;;5094085;28;20112;-62
2021/03/01 13:46:02;;;;;;;21.58;13.65;;;;;;;;;;5092811;28;20074;-62
2021/03/01 13:48:28;;;;;;;18.42;12.75;;;18.20;35.90;;;;;;5094066;28;20021;-60
2021/03/01 13:50:54;;;;;;;18.15;11.25;;;17.20;42.00;;;;;;5093765;28;20035;-62